Time;durP1;ratioP1;P1;durP2;ratioP2;P2;SDS_P1;SDS_P2;PMS_P1;PMS_P2;Temp;Humidity;BMP_temperature;BMP_pressure;BME280_temperature;BME280_humidity;BME280_pressure;Samples;Min_cycle;Max_cycle;Signal;HPM_P1;HPM_P2
2023/10/25 00:00:17;;;;;;;5.30;3.20;;;;;;;10.85;100.00;97521.56;15271620;19;20020;-57
2023/10/25 00:05:42;;;;;;;4.20;3.80;;;;;;;10.79;100.00;97523.97;15268777;19;20022;-58
2023/10/25 00:11:08;;;;;;;4.80;4.32;;;;;;;10.76;100.00;97527.03;15272397;19;20018;-55
2023/10/25 00:16:35;;;;;;;4.40;4.00;;;;;;;10.71;100.00;97534.84;15269141;19;20089;-58
2023/10/25 00:22:00;;;;;;;4.10;3.70;;;;;;;10.65;100.00;97522.09;15268945;19;20027;-57
2023/10/25 00:27:24;;;;;;;4.63;3.78;;;;;;;10.58;100.00;97523.88;15272443;19;20086;-57
2023/10/25 00:32:51;;;;;;;4.03;3.70;;;;;;;10.45;100.00;97536.09;15271636;19;20011;-56
2023/10/25 00:38:16;;;;;;;5.45;3.67;;;;;;;10.38;100.00;97543.25;15262086;19;20018;-58
2023/10/25 00:43:41;;;;;;;4.57;3.67;;;;;;;10.30;100.00;97527.09;15262788;19;20500;-56
2023/10/25 00:49:10;;;;;;;3.60;3.22;;;;;;;10.13;100.00;97538.03;15270885;19;20010;-56
2023/10/25 00:54:35;;;;;;;3.22;2.90;;;;;;;9.96;100.00;97536.47;15269218;19;20073;-56
2023/10/25 01:00:00;;;;;;;3.75;3.25;;;;;;;9.85;100.00;97535.03;15267068;19;20022;-55
2023/10/25 01:05:28;;;;;;;3.42;3.13;;;;;;;9.77;100.00;97521.63;15262950;19;20082;-57
2023/10/25 01:10:54;;;;;;;4.68;4.10;;;;;;;9.71;100.00;97526.72;15260402;19;20015;-56
2023/10/25 01:16:21;;;;;;;4.70;3.78;;;;;;;9.65;100.00;97522.03;15266972;19;20010;-54
2023/10/25 01:21:49;;;;;;;4.53;3.47;;;;;;;9.56;100.00;97532.03;15269906;19;20014;-54
2023/10/25 01:27:10;;;;;;;4.50;4.03;;;;;;;9.48;100.00;97533.91;15267195;19;20019;-56
2023/10/25 01:32:35;;;;;;;5.63;3.70;;;;;;;9.43;100.00;97537.13;15273789;19;20018;-52
2023/10/25 01:38:00;;;;;;;4.40;4.00;;;;;;;9.44;100.00;97543.34;15261127;19;20082;-54
2023/10/25 01:43:28;;;;;;;4.32;3.78;;;;;;;9.39;100.00;97536.66;15271609;19;20476;-55
2023/10/25 01:48:52;;;;;;;4.35;3.90;;;;;;;9.32;100.00;97532.16;15276416;19;20017;-56
2023/10/25 01:54:18;;;;;;;3.47;3.17;;;;;;;9.22;100.00;97538.56;15280588;19;20035;-53
2023/10/25 01:59:45;;;;;;;4.00;3.50;;;;;;;9.14;100.00;97543.13;15272204;19;20422;-52
2023/10/25 02:05:10;;;;;;;4.78;3.40;;;;;;;9.04;100.00;97533.44;15273287;19;20017;-53
2023/10/25 02:10:36;;;;;;;3.75;3.45;;;;;;;8.94;100.00;97528.25;15275824;19;20400;-52
2023/10/25 02:16:13;;;;;;;5.20;4.70;;;;;;;8.87;100.00;97524.59;15268992;19;20015;-55
2023/10/25 02:21:37;;;;;;;4.50;4.10;;;;;;;8.84;100.00;97526.78;15275248;19;20081;-56
2023/10/25 02:27:02;;;;;;;4.47;3.97;;;;;;;8.73;100.00;97514.56;15274824;19;20527;-52
2023/10/25 02:32:30;;;;;;;4.03;3.60;;;;;;;8.65;100.00;97520.78;15271951;19;20505;-55
2023/10/25 02:37:55;;;;;;;3.22;2.90;;;;;;;8.57;100.00;97520.81;15276220;19;20043;-52
2023/10/25 02:43:19;;;;;;;3.40;2.97;;;;;;;8.46;100.00;97514.75;15277082;19;20014;-51
2023/10/25 02:48:46;;;;;;;4.38;3.03;;;;;;;8.38;100.00;97516.63;15268205;19;20471;-57
2023/10/25 02:54:12;;;;;;;3.72;3.40;;;;;;;8.23;100.00;97519.97;15277050;19;20539;-55
2023/10/25 02:59:38;;;;;;;4.10;3.70;;;;;;;8.15;100.00;97517.31;15267769;19;20010;-54
2023/10/25 03:05:07;;;;;;;3.83;3.35;;;;;;;8.10;100.00;97519.63;15227963;19;20060;-56
2023/10/25 03:10:35;;;;;;;4.80;3.50;;;;;;;8.06;100.00;97508.41;15275494;19;20113;-58
2023/10/25 03:15:59;;;;;;;4.93;3.95;;;;;;;8.02;100.00;97513.28;15261288;19;20018;-52
2023/10/25 03:21:26;;;;;;;4.90;4.38;;;;;;;8.01;100.00;97519.66;15261948;19;20725;-53
2023/10/25 03:26:51;;;;;;;5.72;4.70;;;;;;;7.98;100.00;97522.66;15267111;19;20081;-55
2023/10/25 03:32:17;;;;;;;4.70;4.20;;;;;;;7.87;100.00;97520.31;15273886;19;20078;-54
2023/10/25 03:37:44;;;;;;;5.30;4.80;;;;;;;7.81;100.00;97515.63;15273675;19;20021;-51
2023/10/25 03:43:09;;;;;;;6.20;5.43;;;;;;;7.79;100.00;97520.31;15272400;19;20937;-54
2023/10/25 03:48:33;;;;;;;6.22;5.63;;;;;;;7.79;100.00;97513.09;15271071;19;20350;-53
2023/10/25 03:54:00;;;;;;;5.60;5.00;;;;;;;7.82;100.00;97506.56;15266519;19;20010;-54
2023/10/25 03:59:30;;;;;;;6.97;4.90;;;;;;;7.80;100.00;97498.69;15271241;19;20018;-54
2023/10/25 04:05:01;;;;;;;4.82;4.30;;;;;;;7.76;100.00;97502.69;15269533;19;20107;-56
2023/10/25 04:10:30;;;;;;;6.40;4.77;;;;;;;7.71;100.00;97489.78;15269208;19;20032;-55
2023/10/25 04:16:03;;;;;;;5.18;4.63;;;;;;;7.70;100.00;97480.06;15271421;19;20516;-56
2023/10/25 04:21:28;;;;;;;5.72;4.93;;;;;;;7.69;100.00;97481.09;15275021;19;20018;-57
2023/10/25 04:26:55;;;;;;;7.60;4.97;;;;;;;7.68;100.00;97474.06;15262848;19;20018;-51
2023/10/25 04:32:20;;;;;;;5.60;4.90;;;;;;;7.69;100.00;97474.88;15265004;19;20018;-53
2023/10/25 04:37:44;;;;;;;6.10;5.50;;;;;;;7.70;100.00;97477.38;15231539;19;20482;-52
2023/10/25 04:43:12;;;;;;;7.97;5.80;;;;;;;7.74;100.00;97471.69;15270063;19;20043;-55
2023/10/25 04:48:37;;;;;;;7.32;5.75;;;;;;;7.76;100.00;97475.06;15269676;19;20017;-53
2023/10/25 04:54:03;;;;;;;7.30;5.90;;;;;;;7.77;100.00;97476.72;15269548;19;20116;-53
2023/10/25 04:59:30;;;;;;;6.15;5.55;;;;;;;7.78;100.00;97470.38;15259709;19;20419;-53
2023/10/25 05:04:56;;;;;;;7.50;5.70;;;;;;;7.75;100.00;97465.31;15265870;19;20040;-52
2023/10/25 05:10:22;;;;;;;7.82;5.40;;;;;;;7.73;100.00;97454.78;15270250;19;20015;-56
2023/10/25 05:15:50;;;;;;;7.38;5.80;;;;;;;7.72;100.00;97459.28;15268204;19;20017;-54
2023/10/25 05:21:15;;;;;;;7.30;5.50;;;;;;;7.68;100.00;97466.00;15269679;19;20024;-57
2023/10/25 05:26:41;;;;;;;6.35;5.10;;;;;;;7.62;100.00;97469.34;15266743;19;20018;-57
2023/10/25 05:32:12;;;;;;;8.43;4.63;;;;;;;7.60;100.00;97473.19;15264200;19;20033;-52
2023/10/25 05:37:39;;;;;;;6.47;4.60;;;;;;;7.56;100.00;97464.66;15266081;19;20019;-54
2023/10/25 05:43:05;;;;;;;7.05;5.15;;;;;;;7.55;100.00;97463.81;15267238;19;20480;-55
2023/10/25 05:48:34;;;;;;;5.78;4.18;;;;;;;7.55;100.00;97476.38;15267881;19;20018;-56
2023/10/25 05:53:59;;;;;;;6.93;4.95;;;;;;;7.59;100.00;97468.84;15304447;19;20023;-58
2023/10/25 05:59:25;;;;;;;4.45;3.80;;;;;;;7.61;100.00;97467.66;15263959;19;20018;-56
2023/10/25 06:04:53;;;;;;;4.10;3.35;;;;;;;7.64;100.00;97461.97;15258929;19;20486;-56
2023/10/25 06:10:25;;;;;;;3.65;2.80;;;;;;;7.65;100.00;97476.19;15273439;19;20029;-56
2023/10/25 06:15:49;;;;;;;3.42;2.80;;;;;;;7.64;100.00;97478.06;15278252;19;20025;-56
2023/10/25 06:21:17;;;;;;;2.92;2.60;;;;;;;7.64;100.00;97480.75;14769544;19;10001208;-54
2023/10/25 06:26:41;;;;;;;3.22;2.38;;;;;;;7.63;100.00;97481.75;15274949;19;20478;-56
2023/10/25 06:32:08;;;;;;;3.00;2.00;;;;;;;7.59;100.00;97479.56;15276937;19;20033;-55
2023/10/25 06:37:36;;;;;;;5.57;2.17;;;;;;;7.55;100.00;97476.38;15273528;19;20365;-52
2023/10/25 06:43:02;;;;;;;2.40;1.90;;;;;;;7.48;100.00;97478.88;15277563;19;20031;-55
2023/10/25 06:48:27;;;;;;;4.15;2.10;;;;;;;7.48;100.00;97480.69;15271759;19;20357;-55
2023/10/25 06:53:55;;;;;;;4.40;2.42;;;;;;;7.42;100.00;97467.97;15275518;19;20365;-55
2023/10/25 06:59:21;;;;;;;2.35;2.10;;;;;;;7.40;100.00;97458.25;15271815;19;20500;-54
2023/10/25 07:04:50;;;;;;;2.28;1.92;;;;;;;7.42;100.00;97462.63;15271330;19;20014;-56
2023/10/25 07:10:20;;;;;;;3.53;2.10;;;;;;;7.50;100.00;97462.63;15272019;19;20371;-57
2023/10/25 07:15:45;;;;;;;3.40;1.92;;;;;;;7.56;100.00;97470.03;15274713;19;20018;-54
2023/10/25 07:21:09;;;;;;;2.45;2.00;;;;;;;7.63;100.00;97484.41;15277622;19;20041;-54
2023/10/25 07:26:37;;;;;;;4.63;2.40;;;;;;;7.68;100.00;97490.13;15273455;19;20472;-55
2023/10/25 07:32:01;;;;;;;3.75;1.83;;;;;;;7.74;100.00;97483.28;15275910;19;20499;-52
2023/10/25 07:37:26;;;;;;;2.60;1.90;;;;;;;7.80;100.00;97487.94;15271120;19;20334;-55
2023/10/25 07:42:53;;;;;;;2.25;1.88;;;;;;;7.89;100.00;97491.47;15271858;19;20672;-53
2023/10/25 07:48:20;;;;;;;2.22;1.90;;;;;;;7.99;100.00;97496.69;15268766;19;20014;-57
2023/10/25 07:53:44;;;;;;;3.13;1.73;;;;;;;8.06;100.00;97497.69;15270387;19;20022;-57
2023/10/25 07:59:05;;;;;;;2.83;1.77;;;;;;;8.17;100.00;97496.50;15269801;19;20101;-57
2023/10/25 08:04:30;;;;;;;3.95;2.05;;;;;;;8.25;100.00;97491.13;15273313;19;20045;-54
2023/10/25 08:10:03;;;;;;;2.28;1.77;;;;;;;8.38;100.00;97492.47;15265779;19;20014;-56
2023/10/25 08:15:31;;;;;;;3.17;1.63;;;;;;;8.48;100.00;97502.00;15273708;19;20015;-53
2023/10/25 08:20:55;;;;;;;3.97;1.20;;;;;;;8.56;100.00;97503.84;15271265;19;20030;-56
2023/10/25 08:26:21;;;;;;;4.97;1.40;;;;;;;8.64;100.00;97505.69;15269676;19;20022;-54
2023/10/25 08:31:49;;;;;;;2.08;1.33;;;;;;;8.76;100.00;97508.84;15271582;19;20041;-54
2023/10/25 08:37:14;;;;;;;3.55;1.38;;;;;;;8.90;100.00;97502.75;15268352;19;20019;-57
2023/10/25 08:42:38;;;;;;;1.92;1.73;;;;;;;9.10;100.00;97510.41;15266073;19;20421;-59
2023/10/25 08:48:07;;;;;;;2.13;1.90;;;;;;;9.29;100.00;97501.06;15269477;19;20013;-52
2023/10/25 08:53:34;;;;;;;3.88;1.70;;;;;;;9.30;100.00;97496.53;15268217;19;20029;-54
2023/10/25 08:59:01;;;;;;;3.38;1.50;;;;;;;9.29;100.00;97482.25;15267869;19;20029;-55
2023/10/25 09:04:28;;;;;;;2.42;1.75;;;;;;;9.39;100.00;97487.41;15269922;19;20039;-55
2023/10/25 09:09:59;;;;;;;2.78;1.42;;;;;;;9.41;100.00;97474.63;15267432;19;20015;-55
2023/10/25 09:15:31;;;;;;;3.03;1.70;;;;;;;9.43;100.00;97463.69;15265283;19;20019;-54
2023/10/25 09:21:01;;;;;;;2.05;1.80;;;;;;;9.47;100.00;97459.66;15270794;19;20377;-55
2023/10/25 09:26:39;;;;;;;1.80;1.70;;;;;;;9.57;100.00;97457.56;15267394;19;20018;-55
2023/10/25 09:32:14;;;;;;;2.40;1.77;;;;;;;9.66;100.00;97450.28;15269732;19;20022;-55
2023/10/25 09:37:42;;;;;;;2.30;2.10;;;;;;;9.81;100.00;97437.72;15265662;19;20756;-53
2023/10/25 09:43:12;;;;;;;2.58;2.08;;;;;;;10.05;100.00;97435.00;15266542;19;20379;-53
2023/10/25 09:48:39;;;;;;;2.92;1.70;;;;;;;10.26;100.00;97445.06;15274403;19;20383;-54
2023/10/25 09:54:15;;;;;;;2.38;1.70;;;;;;;10.43;100.00;97433.13;15281538;19;20014;-51
2023/10/25 09:59:41;;;;;;;2.85;1.58;;;;;;;10.58;100.00;97417.00;15276045;19;20017;-54
2023/10/25 10:05:11;;;;;;;2.47;1.55;;;;;;;10.74;100.00;97418.66;15274897;19;20408;-55
2023/10/25 10:10:46;;;;;;;2.30;1.73;;;;;;;10.85;100.00;97397.63;15280261;19;20019;-54
2023/10/25 10:16:15;;;;;;;1.95;1.45;;;;;;;10.93;100.00;97389.44;15275022;19;20022;-53
2023/10/25 10:22:05;;;;;;;1.75;1.50;;;;;;;11.09;100.00;97375.75;15270871;19;20039;-52
2023/10/25 10:27:34;;;;;;;3.00;1.30;;;;;;;11.27;100.00;97371.75;15273815;19;20024;-53
2023/10/25 10:33:00;;;;;;;1.65;1.30;;;;;;;11.49;100.00;97359.13;15273860;19;20740;-54
2023/10/25 10:38:24;;;;;;;1.83;1.30;;;;;;;11.64;100.00;97344.75;15270634;19;20014;-51
2023/10/25 10:43:52;;;;;;;2.85;1.00;;;;;;;11.85;100.00;97335.75;15275041;19;20018;-51
2023/10/25 10:49:19;;;;;;;1.25;1.10;;;;;;;12.13;100.00;97310.66;15274567;19;20538;-54
2023/10/25 10:54:44;;;;;;;1.17;1.08;;;;;;;12.27;100.00;97285.41;15270354;19;20025;-53
2023/10/25 11:00:13;;;;;;;1.05;0.80;;;;;;;12.54;100.00;97266.56;15264669;19;20018;-53
2023/10/25 11:05:38;;;;;;;1.00;0.70;;;;;;;12.70;100.00;97241.06;15267781;19;20074;-49
2023/10/25 11:11:04;;;;;;;1.42;0.80;;;;;;;12.83;100.00;97228.63;15276052;19;20492;-52
2023/10/25 11:16:32;;;;;;;1.92;0.80;;;;;;;12.83;100.00;97209.69;15274547;19;20018;-52
2023/10/25 11:21:57;;;;;;;1.10;0.68;;;;;;;12.94;100.00;97193.72;15277122;19;20017;-51
2023/10/25 11:27:22;;;;;;;0.80;0.75;;;;;;;13.13;100.00;97191.22;15266424;19;20028;-49
2023/10/25 11:32:50;;;;;;;1.08;0.70;;;;;;;13.05;100.00;97148.97;15273945;19;20021;-48
2023/10/25 11:38:15;;;;;;;0.63;0.55;;;;;;;13.08;100.00;97131.53;15270921;19;20373;-52
2023/10/25 11:43:40;;;;;;;1.50;0.80;;;;;;;13.16;100.00;97114.28;15271744;19;20021;-52
2023/10/25 11:49:08;;;;;;;0.80;0.60;;;;;;;13.22;100.00;97089.94;15269913;19;20015;-53
2023/10/25 11:54:32;;;;;;;1.92;0.90;;;;;;;13.24;100.00;97087.81;15268756;19;20015;-49
2023/10/25 11:59:57;;;;;;;0.80;0.60;;;;;;;13.37;100.00;97056.38;15260334;19;20070;-49
2023/10/25 12:05:26;;;;;;;2.42;0.60;;;;;;;13.46;100.00;97033.50;15263456;19;20775;-51
2023/10/25 12:10:51;;;;;;;2.15;0.63;;;;;;;13.50;100.00;97026.59;15273398;19;20035;-52
2023/10/25 12:16:17;;;;;;;1.17;0.70;;;;;;;13.60;100.00;97019.91;15269313;19;20026;-53
2023/10/25 12:21:45;;;;;;;1.90;0.70;;;;;;;13.62;100.00;96994.31;15271552;19;20578;-50
2023/10/25 12:27:11;;;;;;;1.42;0.80;;;;;;;13.83;100.00;97001.25;15268592;19;20010;-51
2023/10/25 12:32:36;;;;;;;0.90;0.63;;;;;;;14.13;100.00;96970.88;15266935;19;20018;-53
2023/10/25 12:38:03;;;;;;;0.60;0.60;;;;;;;14.27;100.00;96957.22;15269753;19;20021;-54
2023/10/25 12:43:31;;;;;;;0.80;0.70;;;;;;;14.43;100.00;96945.00;15270400;19;20039;-51
2023/10/25 12:49:03;;;;;;;0.98;0.60;;;;;;;14.44;100.00;96919.56;15267819;19;20614;-51
2023/10/25 12:54:31;;;;;;;3.92;0.80;;;;;;;14.54;100.00;96891.94;15268656;19;20006;-51
2023/10/25 12:59:55;;;;;;;4.00;0.60;;;;;;;14.60;100.00;96874.78;15263095;19;20018;-53
2023/10/25 13:05:20;;;;;;;0.75;0.60;;;;;;;14.61;100.00;96850.16;15264898;19;20034;-52
2023/10/25 13:10:47;;;;;;;0.88;0.55;;;;;;;14.63;100.00;96858.91;15264067;19;20025;-51
2023/10/25 13:16:12;;;;;;;2.40;0.70;;;;;;;14.57;100.00;96850.84;15263185;19;20018;-53
2023/10/25 13:21:41;;;;;;;1.38;0.65;;;;;;;14.43;100.00;96859.09;15284186;19;20028;-53
2023/10/25 13:27:09;;;;;;;0.95;0.70;;;;;;;14.24;100.00;96824.94;15281006;19;20039;-52
2023/10/25 13:32:35;;;;;;;1.25;0.70;;;;;;;14.20;100.00;96829.13;15276330;19;20014;-52
2023/10/25 13:38:01;;;;;;;1.05;0.70;;;;;;;14.11;100.00;96807.78;15281431;19;20025;-54
2023/10/25 13:43:28;;;;;;;1.00;0.68;;;;;;;14.29;100.00;96804.25;15280694;19;20010;-52
2023/10/25 13:48:53;;;;;;;0.80;0.70;;;;;;;14.83;100.00;96778.44;15278745;19;20007;-52
2023/10/25 13:54:19;;;;;;;0.60;0.60;;;;;;;15.28;100.00;96756.28;15278793;19;20014;-52
2023/10/25 13:59:47;;;;;;;0.60;0.60;;;;;;;15.59;100.00;96739.94;15275570;19;20014;-51
2023/10/25 14:05:13;;;;;;;0.40;0.40;;;;;;;15.53;100.00;96730.84;15275113;19;20033;-51
2023/10/25 14:10:50;;;;;;;1.70;0.60;;;;;;;15.40;100.00;96715.63;15276503;19;20017;-56
2023/10/25 14:16:18;;;;;;;1.33;0.50;;;;;;;15.22;100.00;96697.53;15277037;19;20033;-50
2023/10/25 14:21:44;;;;;;;1.00;0.60;;;;;;;15.06;100.00;96686.31;15278998;19;20019;-57
2023/10/25 14:27:09;;;;;;;0.50;0.50;;;;;;;14.89;100.00;96677.19;15276095;19;20014;-52
2023/10/25 14:32:37;;;;;;;1.30;0.60;;;;;;;14.73;100.00;96676.81;15276189;19;20014;-55
2023/10/25 14:38:02;;;;;;;1.65;0.73;;;;;;;14.55;100.00;96661.41;15271695;19;20006;-52
2023/10/25 14:43:27;;;;;;;0.88;0.70;;;;;;;14.32;100.00;96656.69;15279205;19;20031;-55
2023/10/25 14:48:55;;;;;;;1.60;0.77;;;;;;;14.09;100.00;96647.41;15275943;19;20478;-53
2023/10/25 14:54:21;;;;;;;1.02;0.60;;;;;;;13.92;100.00;96651.81;15277324;19;20040;-53
2023/10/25 14:59:46;;;;;;;1.05;0.77;;;;;;;13.76;100.00;96635.09;15271188;19;20015;-54
2023/10/25 15:05:18;;;;;;;0.98;0.70;;;;;;;13.61;100.00;96632.78;15276130;19;20093;-52
2023/10/25 15:10:52;;;;;;;0.60;0.60;;;;;;;13.43;100.00;96625.47;15268123;19;20014;-52
2023/10/25 15:16:17;;;;;;;1.23;0.90;;;;;;;13.25;100.00;96623.53;15273237;19;20021;-53
2023/10/25 15:21:44;;;;;;;0.88;0.80;;;;;;;13.09;100.00;96627.66;15276395;19;20486;-53
2023/10/25 15:27:16;;;;;;;2.22;0.90;;;;;;;12.93;100.00;96635.25;15272176;19;20018;-55
2023/10/25 15:32:40;;;;;;;1.10;0.88;;;;;;;12.81;100.00;96615.38;15275937;19;20018;-52
2023/10/25 15:38:08;;;;;;;0.90;0.90;;;;;;;12.72;100.00;96624.81;15272237;19;20018;-52
2023/10/25 15:43:33;;;;;;;1.10;1.00;;;;;;;12.62;100.00;96631.53;15263415;19;20010;-54
2023/10/25 15:49:00;;;;;;;1.52;1.20;;;;;;;12.53;100.00;96621.22;15271553;19;20392;-53
2023/10/25 15:54:27;;;;;;;1.20;1.10;;;;;;;12.42;100.00;96618.16;15273175;19;20017;-53
2023/10/25 15:59:53;;;;;;;2.08;1.20;;;;;;;12.32;100.00;96615.94;15271662;19;20744;-53
2023/10/25 16:05:18;;;;;;;1.65;1.00;;;;;;;12.21;100.00;96622.03;15270762;19;20021;-53
2023/10/25 16:10:54;;;;;;;1.35;1.00;;;;;;;12.09;100.00;96608.41;15267528;19;20018;-54
2023/10/25 16:16:19;;;;;;;2.40;1.10;;;;;;;12.01;100.00;96603.22;15265057;19;20018;-56
2023/10/25 16:21:46;;;;;;;1.70;1.30;;;;;;;11.92;100.00;96610.72;15271636;19;20067;-55
2023/10/25 16:27:14;;;;;;;1.80;1.45;;;;;;;11.84;100.00;96605.56;15267364;19;20409;-56
2023/10/25 16:32:38;;;;;;;1.40;1.30;;;;;;;11.77;100.00;96604.78;15271446;19;20874;-56
2023/10/25 16:38:04;;;;;;;2.58;1.50;;;;;;;11.70;100.00;96611.00;15268101;19;20029;-56
2023/10/25 16:43:31;;;;;;;1.73;1.40;;;;;;;11.64;100.00;96605.66;15268431;19;20435;-52
2023/10/25 16:48:55;;;;;;;2.67;1.63;;;;;;;11.56;100.00;96614.81;15263516;19;20027;-57
2023/10/25 16:54:20;;;;;;;1.48;1.38;;;;;;;11.52;100.00;96627.06;15268319;19;20022;-53
2023/10/25 16:59:47;;;;;;;1.70;1.33;;;;;;;11.45;100.00;96610.88;15270224;19;20033;-53
2023/10/25 17:05:13;;;;;;;1.50;1.40;;;;;;;11.41;100.00;96610.50;15269718;19;20010;-52
2023/10/25 17:10:44;;;;;;;3.95;1.40;;;;;;;11.37;100.00;96601.16;15266745;19;20011;-52
2023/10/25 17:16:13;;;;;;;1.50;1.40;;;;;;;11.33;100.00;96597.25;15271936;19;20460;-56
2023/10/25 17:21:38;;;;;;;1.50;1.40;;;;;;;11.30;100.00;96588.72;15265411;19;20031;-57
2023/10/25 17:27:02;;;;;;;1.70;1.40;;;;;;;11.26;100.00;96585.63;15265899;19;20389;-52
2023/10/25 17:32:30;;;;;;;2.95;1.50;;;;;;;11.26;100.00;96577.53;15265428;19;20035;-56
2023/10/25 17:37:54;;;;;;;2.92;1.48;;;;;;;11.22;100.00;96570.94;15260677;19;20035;-54
2023/10/25 17:43:19;;;;;;;2.15;1.35;;;;;;;11.18;100.00;96561.59;15267489;19;20015;-54
2023/10/25 17:48:47;;;;;;;3.30;1.58;;;;;;;11.13;100.00;96562.25;15242446;19;20015;-55
2023/10/25 17:54:13;;;;;;;1.70;1.60;;;;;;;11.09;100.00;96551.06;15260848;19;20074;-53
2023/10/25 17:59:38;;;;;;;1.55;1.40;;;;;;;11.04;100.00;96539.25;15263470;19;20018;-56
2023/10/25 18:05:06;;;;;;;1.80;1.58;;;;;;;11.05;100.00;96539.03;15269098;19;20368;-54
2023/10/25 18:10:38;;;;;;;1.98;1.70;;;;;;;11.07;100.00;96530.75;15276881;19;20015;-57
2023/10/25 18:16:02;;;;;;;2.10;1.70;;;;;;;11.03;100.00;96530.34;15274894;19;20020;-52
2023/10/25 18:21:30;;;;;;;1.90;1.60;;;;;;;11.01;100.00;96527.03;15278285;19;20369;-56
2023/10/25 18:26:54;;;;;;;1.90;1.80;;;;;;;10.99;100.00;96521.03;15270052;19;20381;-60
2023/10/25 18:32:19;;;;;;;1.80;1.70;;;;;;;10.98;100.00;96527.47;15272548;19;20021;-55
2023/10/25 18:37:47;;;;;;;2.58;1.90;;;;;;;10.95;100.00;96523.31;15276501;19;20017;-57
2023/10/25 18:43:12;;;;;;;3.35;2.20;;;;;;;10.88;100.00;96527.03;15278926;19;20006;-52
2023/10/25 18:48:36;;;;;;;2.60;2.00;;;;;;;10.87;100.00;96530.81;15276578;19;20033;-55
2023/10/25 18:54:05;;;;;;;2.58;2.28;;;;;;;10.87;100.00;96537.00;15277000;19;20020;-51
2023/10/25 18:59:31;;;;;;;3.75;2.40;;;;;;;10.89;100.00;96537.63;15270687;19;20022;-47
2023/10/25 19:04:58;;;;;;;2.40;2.20;;;;;;;10.94;100.00;96548.59;15273756;19;20077;-51
2023/10/25 19:10:53;;;;;;;4.50;2.40;;;;;;;11.00;100.00;96538.00;15270365;19;20766;-46
2023/10/25 19:16:17;;;;;;;3.83;2.40;;;;;;;11.04;100.00;96532.00;15271203;19;20078;-46
2023/10/25 19:21:43;;;;;;;3.00;2.50;;;;;;;11.06;100.00;96518.31;15276436;19;20022;-49
2023/10/25 19:27:10;;;;;;;2.97;2.63;;;;;;;11.06;100.00;96519.16;15266191;19;20022;-46
2023/10/25 19:32:35;;;;;;;2.85;2.55;;;;;;;11.06;100.00;96510.22;15265883;19;20014;-49
2023/10/25 19:38:00;;;;;;;3.55;2.63;;;;;;;11.04;100.00;96505.06;15272148;19;20022;-47
2023/10/25 19:43:28;;;;;;;2.97;2.60;;;;;;;10.99;100.00;96496.78;15269297;19;20399;-48
2023/10/25 19:48:52;;;;;;;3.13;2.80;;;;;;;10.99;100.00;96490.56;15272339;19;20016;-47
2023/10/25 19:54:18;;;;;;;3.08;2.80;;;;;;;10.99;100.00;96488.72;15273245;19;20957;-51
2023/10/25 19:59:45;;;;;;;3.72;2.63;;;;;;;10.99;100.00;96491.41;15267959;19;20015;-51
2023/10/25 20:05:11;;;;;;;3.10;2.80;;;;;;;11.02;100.00;96480.19;15270687;19;20011;-49
2023/10/25 20:10:36;;;;;;;3.35;2.72;;;;;;;11.04;100.00;96483.50;15267959;19;20069;-48
2023/10/25 20:16:04;;;;;;;2.92;2.72;;;;;;;11.07;100.00;96482.22;15267146;19;20654;-52
2023/10/25 20:21:29;;;;;;;2.92;2.65;;;;;;;11.09;100.00;96486.41;15271159;19;20018;-47
2023/10/25 20:26:55;;;;;;;3.92;2.55;;;;;;;11.14;100.00;96482.22;15282335;19;20022;-49
2023/10/25 20:32:23;;;;;;;2.65;2.42;;;;;;;11.21;100.00;96483.03;15264604;19;20014;-52
2023/10/25 20:37:49;;;;;;;3.10;2.30;;;;;;;11.26;100.00;96488.59;15262850;19;20364;-51
2023/10/25 20:43:13;;;;;;;3.00;2.30;;;;;;;11.33;100.00;96477.78;15271566;19;20017;-49
2023/10/25 20:48:41;;;;;;;2.30;2.10;;;;;;;11.36;100.00;96475.50;15265872;19;20035;-48
2023/10/25 20:54:06;;;;;;;2.17;2.00;;;;;;;11.37;100.00;96460.97;15269551;19;20021;-48
2023/10/25 20:59:31;;;;;;;2.40;2.13;;;;;;;11.40;100.00;96471.34;15267525;19;20014;-47
2023/10/25 21:04:59;;;;;;;3.47;2.30;;;;;;;11.41;100.00;96462.19;15263218;19;20077;-46
2023/10/25 21:10:31;;;;;;;2.50;2.15;;;;;;;11.47;100.00;96462.38;15267237;19;20090;-49
2023/10/25 21:15:56;;;;;;;2.75;2.20;;;;;;;11.51;100.00;96467.13;15267628;19;20027;-47
2023/10/25 21:21:27;;;;;;;2.20;2.00;;;;;;;11.54;100.00;96465.88;15269155;19;20010;-51
2023/10/25 21:26:52;;;;;;;2.15;1.70;;;;;;;11.57;100.00;96465.44;15265622;19;20078;-47
2023/10/25 21:32:19;;;;;;;3.28;1.58;;;;;;;11.60;100.00;96465.00;15267773;19;20018;-46
2023/10/25 21:37:47;;;;;;;1.65;1.55;;;;;;;11.62;100.00;96457.53;15257079;19;20711;-50
2023/10/25 21:43:12;;;;;;;3.25;1.67;;;;;;;11.62;100.00;96457.53;15283341;19;20026;-47
2023/10/25 21:48:38;;;;;;;1.60;1.50;;;;;;;11.66;100.00;96453.34;15279461;19;20022;-47
2023/10/25 21:54:06;;;;;;;1.50;1.40;;;;;;;11.67;100.00;96456.88;15276139;19;20051;-49
2023/10/25 21:59:30;;;;;;;1.40;1.23;;;;;;;11.66;100.00;96450.66;15278401;19;20028;-48
2023/10/25 22:05:11;;;;;;;1.50;1.20;;;;;;;11.64;100.00;96455.44;15281322;19;20021;-48
2023/10/25 22:10:46;;;;;;;0.80;0.80;;;;;;;11.66;100.00;96447.97;15271472;19;20052;-47
2023/10/25 22:16:10;;;;;;;1.00;0.90;;;;;;;11.66;100.00;96441.72;15278207;19;20488;-49
2023/10/25 22:21:36;;;;;;;0.70;0.70;;;;;;;11.67;100.00;96449.63;15278429;19;20011;-48
2023/10/25 22:27:05;;;;;;;1.02;0.80;;;;;;;11.68;100.00;96448.59;15278951;19;20015;-47
2023/10/25 22:32:34;;;;;;;0.90;0.90;;;;;;;11.66;100.00;96442.56;15270862;19;20061;-52
2023/10/25 22:38:00;;;;;;;1.85;1.02;;;;;;;11.66;100.00;96445.25;15277346;19;20032;-50
2023/10/25 22:43:29;;;;;;;1.20;1.10;;;;;;;11.64;100.00;96441.97;15266531;19;20472;-53
2023/10/25 22:48:54;;;;;;;0.80;0.80;;;;;;;11.61;100.00;96439.69;15275929;19;20018;-51
2023/10/25 22:54:19;;;;;;;0.90;0.80;;;;;;;11.57;100.00;96444.69;15272584;19;20023;-52
2023/10/25 22:59:47;;;;;;;1.95;0.70;;;;;;;11.56;100.00;96443.03;15276410;19;20018;-48
2023/10/25 23:05:15;;;;;;;0.60;0.60;;;;;;;11.55;100.00;96448.66;15276542;19;20022;-47
2023/10/25 23:10:46;;;;;;;0.50;0.50;;;;;;;11.53;100.00;96439.94;15276693;19;20539;-49
2023/10/25 23:16:14;;;;;;;0.60;0.60;;;;;;;11.48;100.00;96455.94;15272196;19;20021;-50
2023/10/25 23:21:40;;;;;;;1.45;0.70;;;;;;;11.43;100.00;96442.28;15279636;19;20061;-47
2023/10/25 23:27:05;;;;;;;0.60;0.60;;;;;;;11.38;100.00;96441.06;15275973;19;20003;-48
2023/10/25 23:32:32;;;;;;;0.80;0.68;;;;;;;11.34;100.00;96439.00;15274625;19;20497;-50
2023/10/25 23:37:56;;;;;;;1.52;0.70;;;;;;;11.33;100.00;96442.75;15276049;19;20034;-50
2023/10/25 23:43:21;;;;;;;1.48;0.73;;;;;;;11.34;100.00;96445.25;15274791;19;20014;-51
2023/10/25 23:48:48;;;;;;;1.08;0.60;;;;;;;11.34;100.00;96450.63;15268820;19;20085;-48
2023/10/25 23:54:14;;;;;;;0.50;0.50;;;;;;;11.34;100.00;96450.63;15270431;19;20403;-48
2023/10/25 23:59:58;;;;;;;1.02;0.60;;;;;;;11.34;100.00;96456.03;15271661;19;20449;-48
